Time;durP1;ratioP1;P1;durP2;ratioP2;P2;SDS_P1;SDS_P2;PMS_P1;PMS_P2;Temp;Humidity;BMP_temperature;BMP_pressure;BME280_temperature;BME280_humidity;BME280_pressure;Samples;Min_cycle;Max_cycle;Signal;HPM_P1;HPM_P2
2023/01/14 00:00:25;;;;;;;10.18;0.75;;;;;;;3.85;59.13;100922.00;5065174;28;20035;-63
2023/01/14 00:02:51;;;;;;;8.25;0.80;;;;;;;3.99;58.51;100931.34;5062545;27;20124;-64
2023/01/14 00:05:16;;;;;;;10.93;1.13;;;;;;;4.12;58.24;100931.19;5061430;28;20135;-64
2023/01/14 00:07:42;;;;;;;8.93;1.33;;;;;;;3.53;60.00;100933.56;5067702;28;20044;-64
2023/01/14 00:10:08;;;;;;;16.98;1.48;;;;;;;3.49;59.88;100943.09;5064604;28;20036;-63
2023/01/14 00:12:33;;;;;;;7.68;0.50;;;;;;;3.35;60.49;100929.41;5065804;28;20039;-63
2023/01/14 00:14:59;;;;;;;4.22;0.85;;;;;;;3.14;61.03;100939.03;5061696;28;20024;-63
2023/01/14 00:17:24;;;;;;;7.43;1.08;;;;;;;3.30;60.55;100937.22;5068430;28;20930;-63
2023/01/14 00:19:49;;;;;;;14.85;1.77;;;;;;;3.34;60.28;100930.31;5064606;28;20044;-63
2023/01/14 00:22:15;;;;;;;5.95;1.48;;;;;;;3.48;59.83;100937.91;5065489;28;20039;-63
2023/01/14 00:24:40;;;;;;;5.20;1.33;;;;;;;3.33;60.10;100946.66;5061826;28;20034;-64
2023/01/14 00:27:06;;;;;;;11.27;0.50;;;;;;;3.29;59.93;100947.53;5061302;28;20079;-63
2023/01/14 00:29:34;;;;;;;8.00;0.47;;;;;;;3.57;59.24;100948.16;5065326;28;20027;-64
2023/01/14 00:32:03;;;;;;;10.98;0.68;;;;;;;3.46;59.78;100948.25;5062897;28;20036;-64
2023/01/14 00:34:31;;;;;;;8.52;0.40;;;;;;;3.79;58.23;100944.50;5066049;28;20060;-63
2023/01/14 00:36:56;;;;;;;8.15;0.35;;;;;;;3.36;59.67;100949.22;5067117;28;20491;-64
2023/01/14 00:39:23;;;;;;;7.88;1.08;;;;;;;2.90;61.36;100945.22;5078471;27;20047;-64
2023/01/14 00:41:49;;;;;;;5.55;0.73;;;;;;;3.55;59.36;100950.75;5062994;28;20507;-64
2023/01/14 00:44:15;;;;;;;8.60;0.73;;;;;;;3.14;59.99;100949.38;5061528;28;20055;-65
2023/01/14 00:46:41;;;;;;;7.95;1.02;;;;;;;3.35;59.56;100955.25;5078903;28;20050;-63
2023/01/14 00:49:14;;;;;;;4.47;0.30;;;;;;;3.14;60.72;100957.13;5066750;28;20519;-65
2023/01/14 00:51:40;;;;;;;11.27;0.60;;;;;;;3.43;59.49;100961.22;5059219;28;20187;-65
2023/01/14 00:54:05;;;;;;;9.13;1.15;;;;;;;3.53;58.59;100967.16;5054701;28;20244;-64
2023/01/14 00:56:31;;;;;;;8.48;0.73;;;;;;;3.19;59.88;100968.25;5061839;28;20035;-65
2023/01/14 00:58:57;;;;;;;6.68;0.40;;;;;;;3.16;59.66;100967.44;5060525;28;20067;-65
2023/01/14 01:01:23;;;;;;;12.38;0.38;;;;;;;3.52;58.45;100966.31;5057733;28;20471;-64
2023/01/14 01:03:52;;;;;;;3.58;0.28;;;;;;;3.85;57.11;100969.44;5060738;28;20040;-64
2023/01/14 01:06:20;;;;;;;3.65;0.80;;;;;;;3.68;57.35;100973.91;5063691;28;20040;-63
2023/01/14 01:08:46;;;;;;;6.18;0.55;;;;;;;3.62;57.99;100976.56;5062388;28;20045;-65
2023/01/14 01:11:14;;;;;;;4.90;1.00;;;;;;;3.04;59.18;100989.03;5071694;28;20056;-64
2023/01/14 01:13:39;;;;;;;9.07;0.57;;;;;;;3.31;58.52;100976.81;5060432;28;20082;-65
2023/01/14 01:16:09;;;;;;;2.90;0.60;;;;;;;2.76;60.17;100983.19;5071488;28;20116;-64
2023/01/14 01:18:35;;;;;;;6.53;0.47;;;;;;;3.03;59.56;100986.47;5070833;28;20048;-63
2023/01/14 01:21:06;;;;;;;9.00;1.00;;;;;;;3.45;58.15;100990.50;5067659;28;20040;-65
2023/01/14 01:23:32;;;;;;;9.77;0.35;;;;;;;3.61;57.45;100987.78;5062532;28;20052;-63
2023/01/14 01:26:00;;;;;;;4.00;0.32;;;;;;;2.85;59.47;101001.22;5066403;28;20044;-68
2023/01/14 01:28:25;;;;;;;3.97;0.35;;;;;;;3.23;58.78;100999.25;5068684;28;20063;-74
2023/01/14 01:30:51;;;;;;;4.35;0.30;;;;;;;3.33;58.46;101000.91;5065893;28;20028;-74
2023/01/14 01:33:17;;;;;;;1.77;0.28;;;;;;;3.45;58.35;101003.41;5070194;28;20054;-74
2023/01/14 01:35:42;;;;;;;4.82;0.22;;;;;;;3.21;58.49;101006.16;5069163;28;20036;-74
2023/01/14 01:38:07;;;;;;;4.35;0.25;;;;;;;3.04;59.47;101009.69;5069700;28;20048;-74
2023/01/14 01:40:33;;;;;;;2.97;0.35;;;;;;;3.18;59.34;101005.31;5068844;28;20034;-76
2023/01/14 01:43:00;;;;;;;11.93;0.45;;;;;;;3.44;58.83;101011.16;5085301;27;20056;-73
2023/01/14 01:45:38;;;;;;;1.15;0.20;;;;;;;3.38;59.54;101019.81;5068913;28;20707;-73
2023/01/14 01:48:10;;;;;;;3.30;0.47;;;;;;;3.70;58.60;101013.53;5065806;28;20048;-75
2023/01/14 01:50:36;;;;;;;7.28;0.25;;;;;;;3.83;58.62;101027.19;5064485;28;20043;-64
2023/01/14 01:53:04;;;;;;;1.13;0.10;;;;;;;3.41;59.64;101022.38;5066418;28;20044;-64
2023/01/14 01:55:32;;;;;;;0.43;0.10;;;;;;;3.72;58.53;101024.72;5067000;28;20077;-64
2023/01/14 01:57:58;;;;;;;5.82;0.10;;;;;;;3.43;59.53;101020.66;5066180;27;20102;-64
2023/01/14 02:00:25;;;;;;;2.65;0.38;;;;;;;3.27;60.24;101021.59;5064958;28;20795;-64
2023/01/14 02:02:59;;;;;;;6.07;0.63;;;;;;;3.13;60.77;101027.69;5062789;28;21742;-64
2023/01/14 02:05:26;;;;;;;2.80;0.10;;;;;;;3.77;58.77;101026.38;5049352;28;20437;-64
2023/01/14 02:07:51;;;;;;;2.72;0.13;;;;;;;3.70;59.22;101029.03;5064331;28;20077;-63
2023/01/14 02:10:18;;;;;;;2.80;0.10;;;;;;;4.01;58.22;101024.44;5069056;28;20787;-64
2023/01/14 02:13:10;;;;;;;0.88;0.10;;;;;;;3.83;58.59;101028.06;5061588;28;20063;-64
2023/01/14 02:15:49;;;;;;;3.35;0.40;;;;;;;3.62;59.54;101012.72;5061045;28;20044;-69
2023/01/14 02:18:26;;;;;;;4.63;0.17;;;;;;;4.09;58.24;101022.59;5067937;28;20050;-70
2023/01/14 02:21:23;;;;;;;3.55;0.10;;;;;;;4.20;57.53;101025.94;5065347;28;20036;-69
2023/01/14 02:24:33;;;;;;;7.72;0.65;;;;;;;3.59;59.56;101023.97;5067516;28;20074;-71
2023/01/14 02:27:25;;;;;;;4.88;0.38;;;;;;;3.68;59.30;101021.28;5064228;28;20290;-70
2023/01/14 02:29:58;;;;;;;8.88;0.40;;;;;;;3.63;59.48;101012.72;5065427;28;20165;-69
2023/01/14 02:32:49;;;;;;;7.70;0.70;;;;;;;3.50;60.43;101017.13;5073127;28;20058;-70
2023/01/14 02:35:24;;;;;;;11.27;1.47;;;;;;;3.54;60.22;101005.06;5065343;28;20033;-63
2023/01/14 02:38:30;;;;;;;7.53;0.77;;;;;;;3.28;60.98;101012.97;5073809;28;20728;-64
2023/01/14 02:41:21;;;;;;;12.63;0.68;;;;;;;3.60;59.89;101012.75;5063234;28;20047;-64
2023/01/14 02:44:10;;;;;;;8.88;0.40;;;;;;;3.43;60.11;101018.06;5047294;28;20438;-64
2023/01/14 02:46:53;;;;;;;9.63;0.65;;;;;;;3.51;60.18;101021.44;5060921;28;20035;-63
2023/01/14 02:49:25;;;;;;;6.75;0.90;;;;;;;2.73;61.88;101025.38;5056425;28;20990;-64
2023/01/14 02:51:55;;;;;;;11.38;0.98;;;;;;;3.56;59.53;101023.97;5064395;28;20405;-64
2023/01/14 02:54:21;;;;;;;12.63;0.85;;;;;;;3.19;60.46;101030.25;5051531;28;20043;-65
2023/01/14 02:56:48;;;;;;;11.40;1.02;;;;;;;3.19;60.55;101013.91;5071624;28;20279;-69
2023/01/14 03:00:01;;;;;;;10.10;0.57;;;;;;;3.24;60.36;101021.63;5068192;28;20085;-70
2023/01/14 03:02:49;;;;;;;16.48;1.15;;;;;;;3.25;60.11;101007.81;5082798;27;20074;-69
2023/01/14 03:05:29;;;;;;;23.40;2.42;;;;;;;3.52;59.72;101015.41;5079772;27;20043;-68
2023/01/14 03:08:10;;;;;;;11.18;1.55;;;;;;;3.18;60.12;101000.13;5061389;28;22791;-69
2023/01/14 03:10:45;;;;;;;10.07;2.00;;;;;;;3.19;60.60;101019.91;5071694;28;20036;-69
2023/01/14 03:13:24;;;;;;;14.02;2.33;;;;;;;3.56;59.81;101011.94;5057099;28;20073;-69
2023/01/14 03:16:00;;;;;;;12.80;1.67;;;;;;;3.16;60.55;101006.19;5055091;28;20040;-69
2023/01/14 03:19:06;;;;;;;9.82;1.50;;;;;;;3.39;59.99;101011.19;5076166;28;20048;-64
2023/01/14 03:21:42;;;;;;;9.27;0.90;;;;;;;3.68;59.11;101008.38;4988616;28;20139;-64
2023/01/14 03:24:13;;;;;;;11.05;1.17;;;;;;;3.54;60.10;101003.31;5068261;28;20108;-65
2023/01/14 03:26:43;;;;;;;15.77;1.40;;;;;;;3.48;60.16;101005.97;5072791;27;20055;-64
2023/01/14 03:29:15;;;;;;;10.00;1.58;;;;;;;3.19;60.78;100999.25;5067788;28;20123;-65
2023/01/14 03:31:51;;;;;;;9.82;1.10;;;;;;;3.88;58.65;100997.84;5079874;28;20031;-65
2023/01/14 03:34:24;;;;;;;11.63;1.65;;;;;;;4.04;58.22;101000.28;5062826;28;20036;-65
2023/01/14 03:36:52;;;;;;;17.58;1.75;;;;;;;3.73;59.01;100995.41;5077871;27;20042;-65
2023/01/14 03:39:22;;;;;;;17.77;0.82;;;;;;;3.69;58.94;100994.56;5064904;28;20123;-65
2023/01/14 03:45:00;;;;;;;18.30;1.77;;;;;;;3.52;59.06;100999.91;5074389;27;20110;-65
2023/01/14 03:47:31;;;;;;;8.85;1.13;;;;;;;3.81;57.71;100998.78;5063208;28;20043;-66
2023/01/14 03:50:00;;;;;;;11.82;1.58;;;;;;;3.56;58.71;100999.00;5063421;28;20424;-66
2023/01/14 03:52:33;;;;;;;14.02;1.15;;;;;;;3.59;58.39;101003.28;5063181;28;20373;-64
2023/01/14 03:55:24;;;;;;;6.00;0.77;;;;;;;3.87;57.81;101003.00;5064276;28;20493;-64
2023/01/14 03:58:04;;;;;;;8.05;1.45;;;;;;;3.89;57.51;100998.69;5062537;28;20040;-65
2023/01/14 04:00:34;;;;;;;9.70;1.30;;;;;;;3.78;57.74;101014.28;5058016;28;20097;-65
2023/01/14 04:03:03;;;;;;;20.38;1.10;;;;;;;3.86;57.75;100994.41;5064160;28;20036;-65
2023/01/14 04:05:29;;;;;;;8.82;1.45;;;;;;;3.03;60.64;101004.56;5065226;28;20059;-65
2023/01/14 04:07:56;;;;;;;11.15;1.05;;;;;;;3.73;58.59;101000.56;5062748;28;20154;-67
2023/01/14 04:10:22;;;;;;;5.82;0.68;;;;;;;3.69;58.52;100998.88;5063358;28;20036;-65
2023/01/14 04:15:32;;;;;;;12.40;1.83;;;;;;;3.85;58.13;100984.06;5061408;28;20040;-66
2023/01/14 04:17:57;;;;;;;20.50;1.35;;;;;;;3.77;58.05;100992.75;5067213;28;20036;-66
2023/01/14 04:20:22;;;;;;;5.45;0.93;;;;;;;3.93;57.70;100990.88;5064367;28;20862;-66
2023/01/14 04:22:48;;;;;;;8.55;1.80;;;;;;;3.99;56.98;100988.22;5066281;28;20419;-69
2023/01/14 04:25:13;;;;;;;14.60;1.65;;;;;;;4.04;56.66;100995.09;5074040;28;20046;-70
2023/01/14 04:27:39;;;;;;;10.93;1.25;;;;;;;3.71;57.87;100994.56;5075372;28;20047;-69
2023/01/14 04:30:05;;;;;;;11.70;1.02;;;;;;;3.57;58.19;100992.09;5063560;28;21150;-69
2023/01/14 04:32:31;;;;;;;10.77;1.30;;;;;;;3.79;57.84;101000.53;5066230;28;20560;-68
2023/01/14 04:34:56;;;;;;;12.80;0.85;;;;;;;3.97;56.94;100994.31;5068169;28;20068;-68
2023/01/14 04:37:22;;;;;;;12.82;1.10;;;;;;;3.47;57.63;100993.91;5070311;28;20040;-69
2023/01/14 04:39:47;;;;;;;11.25;1.38;;;;;;;3.73;57.21;101001.41;5066217;28;20931;-68
2023/01/14 04:42:27;;;;;;;15.20;1.92;;;;;;;3.44;58.26;101004.25;5064436;28;20038;-68
2023/01/14 04:44:57;;;;;;;9.30;1.10;;;;;;;3.75;56.63;100999.69;5058881;28;22719;-68
2023/01/14 04:47:24;;;;;;;11.13;1.70;;;;;;;3.01;59.61;100993.38;5059750;28;20059;-68
2023/01/14 04:49:50;;;;;;;12.52;1.42;;;;;;;3.74;57.02;100999.72;5061702;28;20143;-69
2023/01/14 04:52:16;;;;;;;17.08;1.00;;;;;;;3.72;57.32;100988.53;5061352;28;20449;-69
2023/01/14 04:54:42;;;;;;;11.88;0.95;;;;;;;3.71;57.30;100987.66;5056368;28;20161;-68
2023/01/14 04:57:07;;;;;;;15.50;2.75;;;;;;;3.04;58.83;100988.19;5065047;28;20695;-69
2023/01/14 04:59:33;;;;;;;11.38;1.58;;;;;;;3.53;57.69;100983.50;5064109;28;20032;-69
2023/01/14 05:01:58;;;;;;;11.95;1.17;;;;;;;3.19;58.27;100988.06;5064401;28;20039;-69
2023/01/14 05:04:24;;;;;;;15.95;1.40;;;;;;;3.15;58.02;100986.38;5063496;28;20104;-69
2023/01/14 05:06:49;;;;;;;15.43;1.65;;;;;;;3.45;57.57;100990.50;5062686;28;20035;-69
2023/01/14 05:09:15;;;;;;;11.52;1.30;;;;;;;3.41;57.23;100983.63;5062014;28;20051;-69
2023/01/14 05:11:40;;;;;;;7.10;0.90;;;;;;;2.96;59.02;100985.66;5063098;28;20024;-68
2023/01/14 05:14:06;;;;;;;7.00;0.85;;;;;;;3.31;57.92;100982.81;5059053;28;20541;-69
2023/01/14 05:16:31;;;;;;;12.27;0.98;;;;;;;3.37;57.12;100974.19;5063818;28;20020;-65
2023/01/14 05:18:57;;;;;;;19.75;2.65;;;;;;;3.45;56.98;100980.16;5061281;27;20056;-65
2023/01/14 05:21:24;;;;;;;21.42;1.58;;;;;;;3.27;57.13;100969.91;5080865;28;20083;-65
2023/01/14 05:23:49;;;;;;;24.67;1.40;;;;;;;3.33;56.90;100972.50;5060614;28;20836;-65
2023/01/14 05:26:15;;;;;;;12.57;2.67;;;;;;;2.83;58.54;100971.13;5063359;28;20036;-65
2023/01/14 05:28:40;;;;;;;14.27;0.90;;;;;;;3.02;58.14;100970.09;5061046;28;20047;-65
2023/01/14 05:31:06;;;;;;;8.80;0.63;;;;;;;2.83;58.33;100968.53;5066890;28;20581;-66
2023/01/14 05:33:32;;;;;;;7.22;0.57;;;;;;;2.94;57.73;100966.72;5062455;28;20075;-65
2023/01/14 05:35:59;;;;;;;14.27;1.85;;;;;;;2.50;59.08;100957.53;5058501;28;20063;-65
2023/01/14 05:38:26;;;;;;;21.25;1.05;;;;;;;2.45;58.98;100961.84;5063418;28;20048;-67
2023/01/14 05:40:51;;;;;;;8.60;2.30;;;;;;;2.75;58.23;100959.09;5062202;28;20039;-67
2023/01/14 05:46:17;;;;;;;6.50;1.02;;;;;;;2.97;57.47;100956.38;5057946;28;20040;-66
2023/01/14 05:48:43;;;;;;;12.65;0.70;;;;;;;3.13;57.14;100947.63;5062449;28;20039;-65
2023/01/14 05:51:12;;;;;;;17.92;2.13;;;;;;;3.29;56.98;100952.72;5065631;28;20054;-66
2023/01/14 05:53:38;;;;;;;9.05;0.95;;;;;;;3.57;55.96;100937.81;5077669;28;20051;-67
2023/01/14 05:56:03;;;;;;;9.35;1.33;;;;;;;3.06;57.28;100934.78;5061567;28;20093;-63
2023/01/14 05:58:29;;;;;;;8.40;1.08;;;;;;;3.09;57.58;100933.06;5064363;28;20265;-62
2023/01/14 06:06:24;;;;;;;7.75;0.35;;;;;;;3.37;56.57;100919.94;5052065;27;20070;-67
2023/01/14 06:08:51;;;;;;;15.88;1.38;;;;;;;3.48;56.07;100912.94;5064310;28;20077;-67
2023/01/14 06:11:18;;;;;;;5.22;0.95;;;;;;;3.04;57.42;100911.56;5063362;28;20023;-74
2023/01/14 06:13:45;;;;;;;19.05;1.92;;;;;;;2.96;57.60;100908.19;5064434;27;20083;-75
2023/01/14 06:16:10;;;;;;;5.47;0.80;;;;;;;2.96;57.66;100903.03;5061576;28;20032;-66
2023/01/14 06:18:42;;;;;;;6.80;1.60;;;;;;;3.03;57.78;100909.84;5064692;28;20097;-66
2023/01/14 06:21:19;;;;;;;12.93;1.05;;;;;;;2.94;57.72;100891.84;5067687;28;20032;-66
2023/01/14 06:23:47;;;;;;;4.68;0.70;;;;;;;3.23;56.93;100895.94;5059191;28;20127;-74
2023/01/14 06:26:15;;;;;;;14.52;0.75;;;;;;;3.22;56.60;100889.03;5069003;28;20114;-74
2023/01/14 06:28:42;;;;;;;6.40;0.60;;;;;;;2.66;58.38;100878.28;5065238;28;20122;-73
2023/01/14 06:31:13;;;;;;;14.73;1.90;;;;;;;2.48;59.43;100879.28;5069103;28;20036;-66
2023/01/14 06:33:39;;;;;;;3.60;0.77;;;;;;;2.24;60.19;100881.16;5078382;27;20139;-67
2023/01/14 06:36:07;;;;;;;16.95;1.52;;;;;;;2.88;57.45;100866.94;5084214;28;20103;-66
2023/01/14 06:38:33;;;;;;;6.90;0.70;;;;;;;2.79;58.51;100869.59;5071172;28;20726;-68
2023/01/14 06:41:00;;;;;;;8.25;0.95;;;;;;;3.09;57.11;100863.31;5064457;28;20562;-73
2023/01/14 06:43:26;;;;;;;12.00;0.73;;;;;;;2.93;57.35;100862.56;5065846;28;20113;-72
2023/01/14 06:45:56;;;;;;;6.07;0.77;;;;;;;2.71;58.46;100867.09;5065837;28;20070;-76
2023/01/14 06:48:22;;;;;;;9.63;1.10;;;;;;;3.01;57.48;100852.19;5070292;28;20591;-75
2023/01/14 06:50:48;;;;;;;12.43;0.90;;;;;;;3.10;57.12;100854.69;5067722;28;20028;-73
2023/01/14 06:53:14;;;;;;;10.50;0.88;;;;;;;2.81;57.82;100846.34;5064002;28;21128;-68
2023/01/14 06:55:39;;;;;;;8.75;0.95;;;;;;;3.00;57.81;100847.03;5050683;28;20043;-67
2023/01/14 06:58:05;;;;;;;11.10;0.73;;;;;;;3.18;56.98;100837.41;5061931;28;20047;-69
2023/01/14 07:00:31;;;;;;;8.82;0.73;;;;;;;3.03;57.04;100832.38;5064489;28;20029;-70
2023/01/14 07:02:57;;;;;;;8.57;1.30;;;;;;;3.25;56.46;100808.91;5062761;28;20851;-71
2023/01/14 07:05:22;;;;;;;5.65;1.30;;;;;;;3.22;56.69;100803.78;5052359;28;20654;-67
2023/01/14 07:07:49;;;;;;;9.00;0.77;;;;;;;2.90;57.84;100802.38;5061126;28;20044;-74
2023/01/14 07:10:18;;;;;;;11.85;1.70;;;;;;;3.08;57.21;100789.28;5071147;28;20028;-68
2023/01/14 07:12:49;;;;;;;13.80;1.42;;;;;;;2.76;57.99;100800.78;5070854;28;20043;-70
2023/01/14 07:15:17;;;;;;;8.63;0.77;;;;;;;3.07;57.27;100808.25;5065319;28;20229;-66
2023/01/14 07:17:48;;;;;;;9.75;0.75;;;;;;;3.14;56.74;100809.91;5060627;28;20582;-65
2023/01/14 07:20:15;;;;;;;5.30;0.80;;;;;;;3.28;56.94;100808.91;5066704;28;20401;-74
2023/01/14 07:22:41;;;;;;;11.73;1.25;;;;;;;2.83;58.40;100816.22;5061096;28;20044;-74
2023/01/14 07:25:09;;;;;;;11.38;1.35;;;;;;;3.10;57.10;100813.38;5064029;28;20573;-67
2023/01/14 07:27:36;;;;;;;8.50;0.88;;;;;;;2.66;58.70;100812.03;5066425;28;20117;-68
2023/01/14 07:30:03;;;;;;;13.27;1.50;;;;;;;3.08;57.19;100804.78;5065848;28;20536;-70
2023/01/14 07:32:33;;;;;;;11.55;1.23;;;;;;;3.45;56.11;100808.72;5064872;28;20035;-72
2023/01/14 07:34:59;;;;;;;15.00;2.10;;;;;;;3.12;57.14;100806.47;5062257;28;20040;-77
2023/01/14 07:37:25;;;;;;;8.23;1.00;;;;;;;3.17;56.78;100799.53;5053365;28;20050;-70
2023/01/14 07:39:51;;;;;;;9.77;1.83;;;;;;;2.88;57.95;100804.13;5068218;28;20032;-69
2023/01/14 07:42:17;;;;;;;22.85;1.88;;;;;;;2.76;58.58;100805.94;5065227;28;20434;-65
2023/01/14 07:44:44;;;;;;;18.10;1.92;;;;;;;2.88;57.89;100801.53;5061077;28;20040;-66
2023/01/14 07:47:15;;;;;;;13.35;1.30;;;;;;;2.95;57.97;100788.53;5063561;28;20023;-65
2023/01/14 07:49:41;;;;;;;18.93;2.03;;;;;;;3.04;57.29;100791.91;5043833;28;20032;-67
2023/01/14 07:52:12;;;;;;;8.77;1.73;;;;;;;2.91;57.67;100786.91;5063520;28;20028;-67
2023/01/14 07:54:39;;;;;;;13.70;2.60;;;;;;;3.15;57.64;100787.50;5058724;28;20032;-67
2023/01/14 07:57:06;;;;;;;15.65;2.05;;;;;;;2.58;58.82;100772.56;5065911;28;20028;-66
2023/01/14 07:59:32;;;;;;;15.85;1.58;;;;;;;2.86;57.80;100772.31;5062264;28;20055;-66
2023/01/14 08:01:57;;;;;;;8.85;1.52;;;;;;;3.35;56.64;100756.31;5062976;28;20035;-66
2023/01/14 08:04:23;;;;;;;14.10;3.72;;;;;;;2.89;58.21;100756.78;5066147;28;20513;-71
2023/01/14 08:06:49;;;;;;;15.15;2.25;;;;;;;3.47;56.30;100745.84;5073330;28;20032;-66
2023/01/14 08:09:17;;;;;;;23.45;3.05;;;;;;;3.15;57.49;100734.13;5064984;28;20416;-68
2023/01/14 08:11:43;;;;;;;15.93;2.88;;;;;;;3.25;56.94;100728.84;5059411;28;20056;-67
2023/01/14 08:14:09;;;;;;;13.27;2.75;;;;;;;3.04;57.37;100717.03;5062551;27;20203;-68
2023/01/14 08:16:35;;;;;;;25.05;2.90;;;;;;;3.12;57.56;100723.84;5061921;28;20040;-68
2023/01/14 08:19:01;;;;;;;19.55;2.38;;;;;;;3.38;56.32;100709.75;5064247;28;20071;-67
2023/01/14 08:21:26;;;;;;;16.08;2.55;;;;;;;3.11;57.65;100701.47;5062109;28;20032;-70
2023/01/14 08:23:52;;;;;;;12.60;2.33;;;;;;;3.55;55.63;100697.47;5062010;28;20082;-68
2023/01/14 08:26:18;;;;;;;23.77;2.47;;;;;;;2.95;57.70;100694.75;5064700;28;20047;-68
2023/01/14 08:28:43;;;;;;;12.38;2.55;;;;;;;3.42;56.79;100685.59;5060670;28;20053;-68
2023/01/14 08:31:12;;;;;;;21.88;3.65;;;;;;;3.31;56.89;100671.97;5064669;28;20657;-68
2023/01/14 08:33:38;;;;;;;10.82;2.47;;;;;;;3.06;57.51;100669.66;5058115;28;20036;-68
2023/01/14 08:36:07;;;;;;;13.95;1.73;;;;;;;3.24;56.54;100672.91;5062314;28;20039;-69
2023/01/14 08:38:34;;;;;;;12.10;3.15;;;;;;;2.81;58.57;100660.50;5060103;28;20334;-68
2023/01/14 08:41:08;;;;;;;21.63;2.17;;;;;;;3.47;56.32;100658.00;5059113;28;20071;-68
2023/01/14 08:43:33;;;;;;;20.73;3.00;;;;;;;3.26;57.12;100642.75;5057116;28;20044;-68
2023/01/14 08:46:00;;;;;;;12.70;1.25;;;;;;;3.55;56.32;100645.78;5059893;28;20137;-68
2023/01/14 08:48:25;;;;;;;20.95;2.47;;;;;;;3.75;55.69;100642.06;5059272;28;20395;-68
2023/01/14 08:50:51;;;;;;;18.48;2.28;;;;;;;3.87;55.41;100646.19;5061582;28;20524;-68
2023/01/14 08:53:16;;;;;;;14.68;2.08;;;;;;;3.24;56.83;100639.31;5056203;28;20124;-68
2023/01/14 08:55:42;;;;;;;26.15;2.88;;;;;;;3.22;57.16;100631.59;5061768;28;20529;-68
2023/01/14 08:58:08;;;;;;;15.73;2.25;;;;;;;3.77;55.88;100624.81;5065423;27;20254;-68
2023/01/14 09:00:33;;;;;;;17.65;2.30;;;;;;;3.27;57.23;100614.31;5059164;28;20044;-68
2023/01/14 09:02:59;;;;;;;19.83;2.88;;;;;;;3.40;57.13;100622.75;5072114;28;20355;-68
2023/01/14 09:05:25;;;;;;;21.45;2.10;;;;;;;3.85;55.87;100611.75;5063629;28;20750;-68
2023/01/14 09:18:59;;;;;;;11.52;1.83;;;;;;;3.63;56.81;100578.50;5054898;28;20067;-68
2023/01/14 09:21:24;;;;;;;15.23;2.25;;;;;;;3.47;57.22;100570.13;5061353;28;20036;-68
2023/01/14 09:23:50;;;;;;;18.60;3.33;;;;;;;3.82;56.69;100560.94;5061890;28;20674;-68
2023/01/14 09:26:16;;;;;;;21.00;1.98;;;;;;;3.40;56.94;100558.16;5068485;28;20036;-68
2023/01/14 09:28:41;;;;;;;11.68;1.95;;;;;;;3.84;56.39;100564.38;5066328;28;20032;-67
2023/01/14 09:31:07;;;;;;;19.23;2.03;;;;;;;3.78;56.23;100557.59;5069790;28;20429;-68
2023/01/14 09:33:32;;;;;;;17.35;3.40;;;;;;;3.89;56.27;100553.94;5064195;28;20455;-69
2023/01/14 09:36:01;;;;;;;17.90;3.55;;;;;;;3.74;56.90;100549.91;5066431;28;21883;-68
2023/01/14 09:38:28;;;;;;;19.48;2.20;;;;;;;4.03;55.96;100539.06;5065055;28;20579;-68
2023/01/14 09:40:54;;;;;;;22.00;2.72;;;;;;;3.43;57.45;100532.31;5063116;28;20024;-68
2023/01/14 09:43:19;;;;;;;9.40;2.03;;;;;;;3.67;57.18;100527.59;5062898;28;20568;-68
2023/01/14 09:45:48;;;;;;;14.90;3.00;;;;;;;3.43;58.23;100515.97;5060513;28;20318;-68
2023/01/14 09:48:21;;;;;;;29.83;3.10;;;;;;;3.67;57.38;100509.50;5065566;28;20035;-68
2023/01/14 09:51:05;;;;;;;14.60;1.73;;;;;;;3.63;57.33;100503.56;5062116;28;20031;-69
2023/01/14 09:53:59;;;;;;;12.75;2.35;;;;;;;2.99;59.36;100500.22;5060278;27;20460;-69
2023/01/14 09:56:28;;;;;;;14.57;2.47;;;;;;;3.46;58.47;100498.66;5069964;28;20052;-69
2023/01/14 09:58:53;;;;;;;18.77;2.95;;;;;;;3.28;58.69;100480.84;5071089;28;20055;-68
2023/01/14 10:01:32;;;;;;;20.10;2.17;;;;;;;2.97;60.00;100482.16;5072071;28;20090;-68
2023/01/14 10:04:23;;;;;;;16.92;2.85;;;;;;;3.48;58.85;100471.06;5060434;28;20044;-68
2023/01/14 10:06:54;;;;;;;14.75;1.98;;;;;;;3.29;59.22;100461.91;5059770;28;20720;-69
2023/01/14 10:09:33;;;;;;;11.97;1.70;;;;;;;3.33;59.27;100454.06;5062702;28;20504;-67
2023/01/14 10:12:04;;;;;;;16.77;2.25;;;;;;;3.15;60.02;100439.69;5062834;28;20274;-68
2023/01/14 10:14:38;;;;;;;19.60;2.00;;;;;;;3.48;58.67;100421.97;5058859;28;20054;-67
2023/01/14 10:17:09;;;;;;;10.70;2.88;;;;;;;3.29;59.22;100423.16;5063809;28;20942;-68
2023/01/14 10:19:43;;;;;;;11.52;2.35;;;;;;;3.07;60.44;100404.53;5060458;28;20033;-67
2023/01/14 10:22:14;;;;;;;13.55;2.83;;;;;;;2.99;61.30;100402.09;5064126;28;20036;-68
2023/01/14 10:24:42;;;;;;;21.05;3.67;;;;;;;3.08;60.82;100388.19;5062476;28;20323;-67
2023/01/14 10:27:16;;;;;;;14.15;2.95;;;;;;;3.35;59.56;100380.00;5063197;28;20039;-69
2023/01/14 10:29:42;;;;;;;14.80;2.40;;;;;;;3.29;59.83;100367.22;5057944;28;20222;-66
2023/01/14 10:32:12;;;;;;;18.38;2.72;;;;;;;3.33;60.05;100353.31;5062038;28;20036;-66
2023/01/14 10:34:44;;;;;;;16.77;3.22;;;;;;;3.43;59.24;100346.28;5058902;28;20054;-67
2023/01/14 10:37:10;;;;;;;11.18;2.75;;;;;;;3.65;59.19;100331.22;5061787;28;20085;-67
2023/01/14 10:39:42;;;;;;;15.73;2.03;;;;;;;2.85;61.76;100316.31;5055660;28;20033;-67
2023/01/14 10:42:11;;;;;;;10.90;2.55;;;;;;;3.33;60.56;100306.84;5063388;28;20112;-65
2023/01/14 10:44:43;;;;;;;8.80;2.40;;;;;;;3.55;59.76;100288.34;5056299;28;20043;-67
2023/01/14 10:47:19;;;;;;;15.32;2.90;;;;;;;3.57;59.90;100271.06;5059635;28;20042;-67
2023/01/14 10:49:52;;;;;;;11.80;2.58;;;;;;;3.55;59.54;100263.34;5058837;28;20264;-68
2023/01/14 10:52:31;;;;;;;10.25;2.63;;;;;;;3.51;59.98;100248.78;5059100;28;20089;-67
2023/01/14 10:55:12;;;;;;;8.57;2.00;;;;;;;3.59;59.72;100233.97;5074069;27;20028;-68
2023/01/14 10:58:00;;;;;;;14.18;2.97;;;;;;;3.02;60.97;100210.97;5059480;28;20280;-68
2023/01/14 11:00:33;;;;;;;11.07;3.05;;;;;;;3.06;61.49;100212.63;5060084;28;20724;-67
2023/01/14 11:03:01;;;;;;;11.27;2.33;;;;;;;3.34;60.49;100209.56;5060215;28;20123;-67
2023/01/14 11:05:34;;;;;;;14.18;2.72;;;;;;;3.10;61.30;100193.63;5060298;28;20028;-67
2023/01/14 11:08:17;;;;;;;12.85;3.83;;;;;;;3.17;61.20;100176.28;5058954;28;20680;-68
2023/01/14 11:10:43;;;;;;;15.82;5.28;;;;;;;3.41;60.82;100169.78;5061986;28;20027;-67
2023/01/14 11:13:24;;;;;;;10.07;1.70;;;;;;;2.99;61.47;100159.41;5060225;27;20059;-66
2023/01/14 11:15:49;;;;;;;22.60;2.35;;;;;;;3.45;60.48;100137.84;5059454;28;20044;-67
2023/01/14 11:18:17;;;;;;;21.55;2.55;;;;;;;3.10;61.71;100136.81;5058119;28;20118;-68
2023/01/14 11:20:52;;;;;;;9.90;1.23;;;;;;;2.76;62.50;100137.50;5062515;28;20032;-68
2023/01/14 11:23:51;;;;;;;9.80;1.52;;;;;;;3.16;61.81;100133.28;5063194;28;20063;-68
2023/01/14 11:26:38;;;;;;;11.30;2.25;;;;;;;3.44;61.05;100115.44;5063453;28;20028;-67
2023/01/14 11:29:20;;;;;;;12.30;1.30;;;;;;;3.18;61.16;100114.28;5063471;28;20193;-67
2023/01/14 11:31:48;;;;;;;4.28;1.20;;;;;;;3.28;61.21;100104.59;5060742;28;20031;-68
2023/01/14 11:34:20;;;;;;;10.25;2.13;;;;;;;3.05;61.77;100087.00;5063249;28;20898;-67
2023/01/14 11:36:45;;;;;;;;;;;;;;;3.35;60.97;100084.66;5063166;28;20043;-67
2023/01/14 11:39:18;;;;;;;9.48;1.13;;;;;;;3.66;60.15;100063.28;5063509;28;19920;-68
2023/01/14 11:41:44;;;;;;;7.05;1.58;;;;;;;3.59;60.21;100055.66;5062619;28;20726;-67
2023/01/14 11:44:09;;;;;;;8.20;1.63;;;;;;;3.70;60.25;100049.41;5059528;28;20032;-68
2023/01/14 11:46:36;;;;;;;7.30;1.00;;;;;;;2.50;64.12;100039.09;5067872;28;20032;-68
2023/01/14 11:49:19;;;;;;;10.13;1.30;;;;;;;3.42;61.49;100031.13;5068929;28;20050;-68
2023/01/14 11:52:20;;;;;;;6.78;1.30;;;;;;;3.80;59.98;100019.84;5056964;28;20374;-68
2023/01/14 11:54:51;;;;;;;9.55;1.15;;;;;;;3.75;60.53;100016.53;5060312;28;20112;-68
2023/01/14 11:57:22;;;;;;;4.80;1.10;;;;;;;3.59;60.97;100001.41;5060869;28;20032;-67
2023/01/14 11:59:51;;;;;;;2.63;0.53;;;;;;;3.47;61.25;99975.88;5061658;28;20115;-69
2023/01/14 12:02:16;;;;;;;11.00;0.90;;;;;;;3.39;61.51;99985.56;5063330;28;20039;-69
2023/01/14 12:04:49;;;;;;;10.82;1.13;;;;;;;3.56;61.24;99979.94;5060094;28;20031;-69
2023/01/14 12:07:23;;;;;;;6.80;0.40;;;;;;;3.50;61.21;99983.56;5061026;28;20496;-68